Time;durP1;ratioP1;P1;durP2;ratioP2;P2;SDS_P1;SDS_P2;PMS_P1;PMS_P2;Temp;Humidity;BMP_temperature;BMP_pressure;BME280_temperature;BME280_humidity;BME280_pressure;Samples;Min_cycle;Max_cycle;Signal;HPM_P1;HPM_P2
2022/11/23 00:01:32;;;;;;;6.53;1.13;;;;;;;;;;5098889;28;20657;-66
2022/11/23 00:04:01;;;;;;;0.90;0.90;;;;;;;;;;5097047;28;20237;-66
2022/11/23 00:06:29;;;;;;;2.00;1.00;;;;;;;;;;5095205;28;20198;-65
2022/11/23 00:08:57;;;;;;;1.30;1.20;;;;;;;;;;5094908;28;20194;-65
2022/11/23 00:11:25;;;;;;;1.60;1.20;;;;;;;;;;5097590;28;20199;-66
2022/11/23 00:13:52;;;;;;;0.80;0.80;;;;;;;;;;5100122;28;20213;-65
2022/11/23 00:16:21;;;;;;;2.93;1.10;;;;;;;;;;5091470;28;20565;-66
2022/11/23 00:18:50;;;;;;;1.73;1.07;;;;;;;;;;5094819;28;20198;-65
2022/11/23 00:21:18;;;;;;;4.57;0.90;;;;;;;;;;5086124;28;20198;-66
2022/11/23 00:23:46;;;;;;;0.70;0.70;;;;;;;;;;5088800;28;20213;-65
2022/11/23 00:26:14;;;;;;;1.00;0.90;;;;;;;;;;5094149;28;20209;-65
2022/11/23 00:28:44;;;;;;;0.67;0.67;;;;;;;;;;5105149;28;20205;-65
2022/11/23 00:31:12;;;;;;;2.60;1.07;;;;;;;;;;5103889;28;20603;-63
2022/11/23 00:33:39;;;;;;;3.03;0.80;;;;;;;;;;5091858;28;20707;-65
2022/11/23 00:36:07;;;;;;;1.00;0.90;;;;;;;;;;5093232;28;20198;-65
2022/11/23 00:38:35;;;;;;;1.23;0.80;;;;;;;;;;5100334;28;20602;-66
2022/11/23 00:41:04;;;;;;;2.33;0.87;;;;;;;;;;5102074;28;20210;-65
2022/11/23 00:43:32;;;;;;;3.20;0.70;;;;;;;;;;5098417;28;20221;-65
2022/11/23 00:46:02;;;;;;;0.60;0.60;;;;;;;;;;5093040;28;20637;-65
2022/11/23 00:48:29;;;;;;;1.20;1.10;;;;;;;;;;5088259;28;20214;-65
2022/11/23 00:50:56;;;;;;;1.53;1.03;;;;;;;;;;5091704;28;20214;-65
2022/11/23 00:53:23;;;;;;;1.07;0.80;;;;;;;;;;5102861;28;20198;-65
2022/11/23 00:55:51;;;;;;;3.77;1.10;;;;;;;;;;5093716;28;20226;-65
2022/11/23 00:58:20;;;;;;;1.10;1.03;;;;;;;;;;5092339;28;20237;-64
2022/11/23 01:00:47;;;;;;;1.90;0.70;;;;;;;;;;5108576;28;20206;-65
2022/11/23 01:03:14;;;;;;;3.73;0.80;;;;;;;;;;5100059;28;20217;-65
2022/11/23 01:05:41;;;;;;;1.40;0.87;;;;;;;;;;5098428;28;20856;-65
2022/11/23 01:08:09;;;;;;;4.83;1.13;;;;;;;;;;5097018;28;20229;-65
2022/11/23 01:10:36;;;;;;;1.10;1.10;;;;;;;;;;5101323;28;20206;-65
2022/11/23 01:13:03;;;;;;;3.63;1.03;;;;;;;;;;5102222;28;20627;-65
2022/11/23 01:15:31;;;;;;;3.63;1.43;;;;;;;;;;5100686;28;20224;-65
2022/11/23 01:17:58;;;;;;;1.13;0.90;;;;;;;;;;5100915;28;20205;-66
2022/11/23 01:20:25;;;;;;;1.97;1.23;;;;;;;;;;5099785;28;20201;-65
2022/11/23 01:22:53;;;;;;;0.57;0.57;;;;;;;;;;5099546;28;20229;-66
2022/11/23 01:25:20;;;;;;;3.33;1.13;;;;;;;;;;5100433;28;20198;-66
2022/11/23 01:27:47;;;;;;;1.63;0.97;;;;;;;;;;5099979;28;20206;-66
2022/11/23 01:30:14;;;;;;;2.50;1.40;;;;;;;;;;5099041;28;20288;-65
2022/11/23 01:32:43;;;;;;;3.97;1.10;;;;;;;;;;5098590;28;20209;-65
2022/11/23 01:35:10;;;;;;;2.43;0.83;;;;;;;;;;5098346;28;20676;-65
2022/11/23 01:37:37;;;;;;;1.80;0.80;;;;;;;;;;5096362;28;20209;-65
2022/11/23 01:40:04;;;;;;;2.70;1.13;;;;;;;;;;5099654;28;20206;-66
2022/11/23 01:42:44;;;;;;;1.50;0.97;;;;;;;;;;5096498;28;20225;-66
2022/11/23 01:45:29;;;;;;;4.10;0.90;;;;;;;;;;5097193;28;20201;-65
2022/11/23 01:47:58;;;;;;;1.10;0.80;;;;;;;;;;5097508;28;20197;-65
2022/11/23 01:50:26;;;;;;;0.80;0.80;;;;;;;;;;5096508;28;20301;-66
2022/11/23 01:52:53;;;;;;;4.07;0.90;;;;;;;;;;5099503;28;20200;-65
2022/11/23 01:55:20;;;;;;;3.73;1.10;;;;;;;;;;5096972;28;20715;-65
2022/11/23 01:57:47;;;;;;;0.63;0.63;;;;;;;;;;5096414;28;20245;-66
2022/11/23 02:00:15;;;;;;;0.60;0.60;;;;;;;;;;5098274;28;20259;-65
2022/11/23 02:02:45;;;;;;;2.93;0.77;;;;;;;;;;5099617;28;20699;-66
2022/11/23 02:05:14;;;;;;;0.90;0.90;;;;;;;;;;5090913;28;20210;-64
2022/11/23 02:07:42;;;;;;;4.43;1.00;;;;;;;;;;5097808;28;20686;-66
2022/11/23 02:10:09;;;;;;;3.53;1.20;;;;;;;;;;5100778;28;20683;-65
2022/11/23 02:12:36;;;;;;;1.60;0.80;;;;;;;;;;5098742;28;20207;-65
2022/11/23 02:15:03;;;;;;;1.57;0.90;;;;;;;;;;5092507;28;20684;-65
2022/11/23 02:17:30;;;;;;;3.63;0.67;;;;;;;;;;5099189;28;20211;-65
2022/11/23 02:20:01;;;;;;;4.73;0.93;;;;;;;;;;5091262;28;20206;-66
2022/11/23 02:22:34;;;;;;;5.60;1.03;;;;;;;;;;5090167;28;20233;-65
2022/11/23 02:25:02;;;;;;;5.43;1.13;;;;;;;;;;5091050;28;20202;-64
2022/11/23 02:27:30;;;;;;;1.13;0.97;;;;;;;;;;5088727;28;20684;-64
2022/11/23 02:29:59;;;;;;;1.57;1.17;;;;;;;;;;5109630;28;20205;-64
2022/11/23 02:32:26;;;;;;;2.60;0.90;;;;;;;;;;5103789;28;20206;-64
2022/11/23 02:34:53;;;;;;;6.37;1.07;;;;;;;;;;5102623;28;20688;-64
2022/11/23 02:37:20;;;;;;;1.90;1.00;;;;;;;;;;5098774;28;20298;-64
2022/11/23 02:39:48;;;;;;;0.60;0.60;;;;;;;;;;5104928;28;20229;-64
2022/11/23 02:42:15;;;;;;;1.17;0.70;;;;;;;;;;5105374;28;20205;-64
2022/11/23 02:44:47;;;;;;;2.07;0.80;;;;;;;;;;5109994;28;20197;-64
2022/11/23 02:47:14;;;;;;;3.47;1.07;;;;;;;;;;5096328;28;20240;-65
2022/11/23 02:49:42;;;;;;;2.77;0.87;;;;;;;;;;5099738;28;20209;-64
2022/11/23 02:52:09;;;;;;;1.77;0.83;;;;;;;;;;5092391;28;20194;-64
2022/11/23 02:54:36;;;;;;;3.07;1.00;;;;;;;;;;5105505;28;20602;-65
2022/11/23 02:57:04;;;;;;;1.13;1.03;;;;;;;;;;5092817;28;20193;-65
2022/11/23 02:59:32;;;;;;;3.13;0.90;;;;;;;;;;5097051;28;20347;-64
2022/11/23 03:02:01;;;;;;;2.00;1.10;;;;;;;;;;5092114;28;20198;-64
2022/11/23 03:04:28;;;;;;;0.93;0.90;;;;;;;;;;5099926;28;20229;-65
2022/11/23 03:06:55;;;;;;;2.90;0.97;;;;;;;;;;5105364;28;20277;-65
2022/11/23 03:09:24;;;;;;;0.80;0.80;;;;;;;;;;5090931;28;20206;-65
2022/11/23 03:11:51;;;;;;;1.80;1.27;;;;;;;;;;5096734;28;20202;-65
2022/11/23 03:14:19;;;;;;;3.53;0.80;;;;;;;;;;5093533;28;20202;-64
2022/11/23 03:16:46;;;;;;;1.40;0.67;;;;;;;;;;5108447;28;20221;-65
2022/11/23 03:19:14;;;;;;;1.87;0.57;;;;;;;;;;5109016;28;20664;-65
2022/11/23 03:21:41;;;;;;;2.00;0.90;;;;;;;;;;5107618;28;20209;-65
2022/11/23 03:24:08;;;;;;;4.00;0.93;;;;;;;;;;5109806;28;20240;-65
2022/11/23 03:26:35;;;;;;;1.00;1.00;;;;;;;;;;5106142;28;20205;-65
2022/11/23 03:29:02;;;;;;;0.70;0.70;;;;;;;;;;5105023;28;20270;-65
2022/11/23 03:31:29;;;;;;;2.50;1.30;;;;;;;;;;5108644;28;20209;-65
2022/11/23 03:33:57;;;;;;;2.50;1.33;;;;;;;;;;5090237;28;20206;-65
2022/11/23 03:36:25;;;;;;;1.73;1.20;;;;;;;;;;5099987;28;20205;-64
2022/11/23 03:38:52;;;;;;;0.50;0.50;;;;;;;;;;5106735;28;20220;-65
2022/11/23 03:41:19;;;;;;;0.67;0.67;;;;;;;;;;5108847;28;20205;-64
2022/11/23 03:43:46;;;;;;;1.80;1.27;;;;;;;;;;5109569;28;20232;-64
2022/11/23 03:46:13;;;;;;;0.70;0.60;;;;;;;;;;5099150;28;20197;-65
2022/11/23 03:48:40;;;;;;;0.57;0.57;;;;;;;;;;5100737;28;20214;-64
2022/11/23 03:51:07;;;;;;;4.63;1.17;;;;;;;;;;5097952;28;20209;-65
2022/11/23 03:53:36;;;;;;;3.03;1.10;;;;;;;;;;5088563;28;20213;-65
2022/11/23 03:56:03;;;;;;;1.23;0.67;;;;;;;;;;5088208;28;20222;-64
2022/11/23 03:58:30;;;;;;;0.60;0.60;;;;;;;;;;5098159;28;20260;-65
2022/11/23 04:00:57;;;;;;;3.70;0.87;;;;;;;;;;5098675;28;20198;-64
2022/11/23 04:03:24;;;;;;;3.00;0.93;;;;;;;;;;5090773;28;20228;-64
2022/11/23 04:05:51;;;;;;;0.70;0.67;;;;;;;;;;5090424;28;20205;-65
2022/11/23 04:08:18;;;;;;;3.90;0.83;;;;;;;;;;5090720;28;20633;-65
2022/11/23 04:10:46;;;;;;;1.03;0.80;;;;;;;;;;5092679;28;20209;-65
2022/11/23 04:13:14;;;;;;;1.07;1.03;;;;;;;;;;5108231;28;20208;-65
2022/11/23 04:15:41;;;;;;;2.40;0.90;;;;;;;;;;5105792;28;20224;-65
2022/11/23 04:18:08;;;;;;;2.00;0.40;;;;;;;;;;5092446;28;20523;-65
2022/11/23 04:20:35;;;;;;;1.17;1.07;;;;;;;;;;5101963;28;20677;-64
2022/11/23 04:23:02;;;;;;;3.30;0.93;;;;;;;;;;5097418;28;20213;-65
2022/11/23 04:25:29;;;;;;;1.90;1.00;;;;;;;;;;5089717;28;20591;-65
2022/11/23 04:27:57;;;;;;;2.83;0.60;;;;;;;;;;5099609;28;20221;-64
2022/11/23 04:30:24;;;;;;;2.97;1.10;;;;;;;;;;5095547;28;20198;-64
2022/11/23 04:32:51;;;;;;;2.13;1.00;;;;;;;;;;5103675;28;20210;-64
2022/11/23 04:35:19;;;;;;;2.73;0.63;;;;;;;;;;5108582;28;20205;-64
2022/11/23 04:37:46;;;;;;;0.87;0.60;;;;;;;;;;5110902;28;20293;-64
2022/11/23 04:40:14;;;;;;;1.87;0.60;;;;;;;;;;5097833;28;20229;-64
2022/11/23 04:42:41;;;;;;;1.40;0.93;;;;;;;;;;5105282;28;20205;-64
2022/11/23 04:45:11;;;;;;;0.93;0.53;;;;;;;;;;5109369;28;20216;-64
2022/11/23 04:47:38;;;;;;;0.73;0.67;;;;;;;;;;5109198;28;20208;-64
2022/11/23 04:50:05;;;;;;;2.37;0.53;;;;;;;;;;5104864;28;20198;-63
2022/11/23 04:52:32;;;;;;;1.97;1.07;;;;;;;;;;5103138;28;20212;-63
2022/11/23 04:54:59;;;;;;;0.60;0.60;;;;;;;;;;5093949;28;20223;-66
2022/11/23 04:57:26;;;;;;;2.60;0.77;;;;;;;;;;5111287;28;20202;-66
2022/11/23 04:59:54;;;;;;;0.93;0.60;;;;;;;;;;5103594;28;20209;-66
2022/11/23 05:02:22;;;;;;;2.60;0.80;;;;;;;;;;5097158;28;20202;-65
2022/11/23 05:04:49;;;;;;;0.97;0.83;;;;;;;;;;5094461;28;20230;-66
2022/11/23 05:07:16;;;;;;;1.13;0.93;;;;;;;;;;5104475;28;20206;-66
2022/11/23 05:09:44;;;;;;;1.50;0.67;;;;;;;;;;5093840;28;20198;-66
2022/11/23 05:12:14;;;;;;;2.77;0.97;;;;;;;;;;5107497;28;20212;-66
2022/11/23 05:14:42;;;;;;;1.27;0.70;;;;;;;;;;5109300;28;20656;-66
2022/11/23 05:17:09;;;;;;;3.03;0.60;;;;;;;;;;5103209;28;20289;-68
2022/11/23 05:19:37;;;;;;;1.63;0.70;;;;;;;;;;5092408;28;20210;-65
2022/11/23 05:22:04;;;;;;;2.43;0.80;;;;;;;;;;5096094;28;20209;-64
2022/11/23 05:24:31;;;;;;;0.70;0.60;;;;;;;;;;5107555;28;20602;-64
2022/11/23 05:26:58;;;;;;;0.97;0.80;;;;;;;;;;5088690;28;20217;-64
2022/11/23 05:29:25;;;;;;;1.23;0.53;;;;;;;;;;5090386;28;20210;-63
2022/11/23 05:31:52;;;;;;;0.70;0.70;;;;;;;;;;5097011;28;20206;-63
2022/11/23 05:34:19;;;;;;;0.80;0.77;;;;;;;;;;5091618;28;20206;-64
2022/11/23 05:36:48;;;;;;;4.43;1.10;;;;;;;;;;5095838;28;20211;-64
2022/11/23 05:39:15;;;;;;;7.73;0.87;;;;;;;;;;5109954;28;20209;-64
2022/11/23 05:41:42;;;;;;;0.93;0.70;;;;;;;;;;5098249;28;20213;-63
2022/11/23 05:44:09;;;;;;;3.40;0.73;;;;;;;;;;5091136;28;20703;-64
2022/11/23 05:46:36;;;;;;;2.30;0.70;;;;;;;;;;5098430;28;20217;-63
2022/11/23 05:49:03;;;;;;;2.30;1.03;;;;;;;;;;5091940;28;20703;-66
2022/11/23 05:51:30;;;;;;;0.83;0.63;;;;;;;;;;5106755;28;20213;-64
2022/11/23 05:53:59;;;;;;;1.80;1.13;;;;;;;;;;5105339;28;20197;-64
2022/11/23 05:56:26;;;;;;;2.20;0.50;;;;;;;;;;5090649;28;20210;-64
2022/11/23 05:58:55;;;;;;;2.50;0.80;;;;;;;;;;5109023;28;20244;-64
2022/11/23 06:01:22;;;;;;;0.93;0.87;;;;;;;;;;5099583;28;20686;-63
2022/11/23 06:03:50;;;;;;;1.97;0.90;;;;;;;;;;5085783;28;20230;-63
2022/11/23 06:06:17;;;;;;;1.50;0.83;;;;;;;;;;5093046;28;20207;-64
2022/11/23 06:08:44;;;;;;;2.87;0.67;;;;;;;;;;5091900;28;20201;-64
2022/11/23 06:11:12;;;;;;;0.50;0.50;;;;;;;;;;5091456;28;20219;-64
2022/11/23 06:13:42;;;;;;;0.70;0.70;;;;;;;;;;5091205;28;20295;-64
2022/11/23 06:16:09;;;;;;;0.87;0.87;;;;;;;;;;5095841;28;20661;-64
2022/11/23 06:18:36;;;;;;;1.90;0.70;;;;;;;;;;5092036;28;20209;-64
2022/11/23 06:21:03;;;;;;;5.17;0.97;;;;;;;;;;5090521;28;20207;-64
2022/11/23 06:23:30;;;;;;;2.30;0.83;;;;;;;;;;5090759;28;20269;-64
2022/11/23 06:25:59;;;;;;;1.27;0.80;;;;;;;;;;5091538;28;20198;-64
2022/11/23 06:28:28;;;;;;;5.33;0.90;;;;;;;;;;5094019;28;20203;-65
2022/11/23 06:30:56;;;;;;;2.87;0.77;;;;;;;;;;5100388;28;20206;-64
2022/11/23 06:33:23;;;;;;;3.13;1.00;;;;;;;;;;5093517;28;20210;-64
2022/11/23 06:35:54;;;;;;;1.67;0.70;;;;;;;;;;5088143;28;20207;-64
2022/11/23 06:38:21;;;;;;;3.13;0.70;;;;;;;;;;5104519;28;20215;-64
2022/11/23 06:40:48;;;;;;;2.40;1.23;;;;;;;;;;5109915;28;20206;-65
2022/11/23 06:43:15;;;;;;;0.93;0.60;;;;;;;;;;5108256;28;20209;-65
2022/11/23 06:45:44;;;;;;;1.47;0.90;;;;;;;;;;5110041;28;20206;-65
2022/11/23 06:48:11;;;;;;;0.70;0.70;;;;;;;;;;5107890;28;20533;-65
2022/11/23 06:50:38;;;;;;;1.60;0.93;;;;;;;;;;5100706;28;20197;-64
2022/11/23 06:53:17;;;;;;;0.67;0.67;;;;;;;;;;5103994;28;20212;-65
2022/11/23 06:55:44;;;;;;;3.03;0.70;;;;;;;;;;5096060;28;20245;-64
2022/11/23 06:58:11;;;;;;;0.67;0.67;;;;;;;;;;5107950;28;20243;-63
2022/11/23 07:00:38;;;;;;;2.37;1.23;;;;;;;;;;5098444;28;20244;-65
2022/11/23 07:03:07;;;;;;;0.70;0.70;;;;;;;;;;5090316;28;20216;-64
2022/11/23 07:05:34;;;;;;;1.90;0.73;;;;;;;;;;5108049;28;20699;-64
2022/11/23 07:08:01;;;;;;;1.57;0.83;;;;;;;;;;5106787;28;20216;-68
2022/11/23 07:10:28;;;;;;;1.33;1.00;;;;;;;;;;5096874;28;20716;-64
2022/11/23 07:12:55;;;;;;;1.13;0.97;;;;;;;;;;5107486;28;20755;-65
2022/11/23 07:15:22;;;;;;;6.47;1.77;;;;;;;;;;5089893;28;20316;-64
2022/11/23 07:17:49;;;;;;;1.73;1.10;;;;;;;;;;5089518;28;20292;-64
2022/11/23 07:20:18;;;;;;;3.90;0.90;;;;;;;;;;5102992;28;20554;-64
2022/11/23 07:22:45;;;;;;;2.83;0.90;;;;;;;;;;5089613;28;20210;-65
2022/11/23 07:25:15;;;;;;;0.70;0.70;;;;;;;;;;5089025;28;20218;-64
2022/11/23 07:27:43;;;;;;;1.70;0.80;;;;;;;;;;5089488;28;20309;-64
2022/11/23 07:30:10;;;;;;;3.00;1.00;;;;;;;;;;5105270;28;20202;-64
2022/11/23 07:32:38;;;;;;;5.00;0.97;;;;;;;;;;5101017;28;20574;-64
2022/11/23 07:35:06;;;;;;;0.83;0.70;;;;;;;;;;5107173;28;20309;-64
2022/11/23 07:37:34;;;;;;;2.30;1.20;;;;;;;;;;5093341;28;20206;-64
2022/11/23 07:40:09;;;;;;;2.70;0.73;;;;;;;;;;5091940;28;20794;-65
2022/11/23 07:42:37;;;;;;;3.53;0.93;;;;;;;;;;5091998;28;20208;-65
2022/11/23 07:45:05;;;;;;;0.93;0.93;;;;;;;;;;5106622;28;20228;-64
2022/11/23 07:47:32;;;;;;;1.37;1.17;;;;;;;;;;5108391;28;20250;-65
2022/11/23 07:49:59;;;;;;;1.40;1.10;;;;;;;;;;5109758;28;20208;-64
2022/11/23 07:52:26;;;;;;;4.00;1.03;;;;;;;;;;5100444;28;20618;-65
2022/11/23 07:54:55;;;;;;;0.60;0.60;;;;;;;;;;5095481;28;20234;-65
2022/11/23 07:57:23;;;;;;;4.03;0.90;;;;;;;;;;5105255;28;20208;-65
2022/11/23 07:59:51;;;;;;;3.07;0.90;;;;;;;;;;5095982;28;20206;-66
2022/11/23 08:02:18;;;;;;;2.10;1.00;;;;;;;;;;5089960;28;20384;-67
2022/11/23 08:04:46;;;;;;;1.50;0.80;;;;;;;;;;5091035;28;20336;-63
2022/11/23 08:07:13;;;;;;;0.77;0.77;;;;;;;;;;5089277;28;20238;-64
2022/11/23 08:09:41;;;;;;;2.93;0.83;;;;;;;;;;5089064;28;20210;-64
2022/11/23 08:12:10;;;;;;;1.10;1.10;;;;;;;;;;5090111;28;20627;-65
2022/11/23 08:14:37;;;;;;;2.07;0.80;;;;;;;;;;5087239;28;20668;-64
2022/11/23 08:17:04;;;;;;;1.53;0.83;;;;;;;;;;5090437;28;20218;-65
2022/11/23 08:19:31;;;;;;;0.77;0.77;;;;;;;;;;5090687;28;20749;-66
2022/11/23 08:21:59;;;;;;;2.40;0.60;;;;;;;;;;5088939;28;20268;-65
2022/11/23 08:24:27;;;;;;;1.67;0.57;;;;;;;;;;5090634;28;20234;-65
2022/11/23 08:26:54;;;;;;;0.80;0.80;;;;;;;;;;5090536;28;20210;-64
2022/11/23 08:29:23;;;;;;;1.90;0.87;;;;;;;;;;5090796;28;20214;-65
2022/11/23 08:31:51;;;;;;;3.40;0.80;;;;;;;;;;5093846;28;20249;-64
2022/11/23 08:34:19;;;;;;;2.20;1.00;;;;;;;;;;5091356;28;20212;-65
2022/11/23 08:36:46;;;;;;;0.80;0.80;;;;;;;;;;5097140;28;20209;-65
2022/11/23 08:39:14;;;;;;;1.00;0.90;;;;;;;;;;5095142;28;20210;-64
2022/11/23 08:41:41;;;;;;;1.43;0.63;;;;;;;;;;5094953;28;20209;-64
2022/11/23 08:44:10;;;;;;;1.43;0.80;;;;;;;;;;5104732;28;20224;-63
2022/11/23 08:46:38;;;;;;;0.60;0.60;;;;;;;;;;5098434;28;20210;-61
2022/11/23 08:49:06;;;;;;;0.70;0.70;;;;;;;;;;5088582;28;20214;-65
2022/11/23 08:51:33;;;;;;;1.10;0.63;;;;;;;;;;5098140;28;20202;-64
2022/11/23 08:54:00;;;;;;;3.23;1.13;;;;;;;;;;5108526;28;20210;-64
2022/11/23 08:56:27;;;;;;;4.23;0.90;;;;;;;;;;5100928;28;20207;-65
2022/11/23 08:58:54;;;;;;;0.83;0.60;;;;;;;;;;5106425;28;20241;-64
2022/11/23 09:01:21;;;;;;;4.83;1.17;;;;;;;;;;5093644;28;20202;-68
2022/11/23 09:03:50;;;;;;;5.93;1.10;;;;;;;;;;5104309;28;20217;-67
2022/11/23 09:06:17;;;;;;;2.43;0.90;;;;;;;;;;5088238;28;20205;-67
2022/11/23 09:08:44;;;;;;;2.07;1.13;;;;;;;;;;5086676;28;20203;-64
2022/11/23 09:11:12;;;;;;;6.30;1.10;;;;;;;;;;5092011;28;20197;-64
2022/11/23 09:13:40;;;;;;;0.93;0.87;;;;;;;;;;5097986;28;20205;-64
2022/11/23 09:16:07;;;;;;;1.00;0.73;;;;;;;;;;5101266;28;20199;-63
2022/11/23 09:18:35;;;;;;;1.03;0.70;;;;;;;;;;5111250;28;20198;-64
2022/11/23 09:21:04;;;;;;;1.97;0.73;;;;;;;;;;5095883;28;20697;-64
2022/11/23 09:23:32;;;;;;;2.90;0.73;;;;;;;;;;5091639;28;20203;-64
2022/11/23 09:25:59;;;;;;;1.23;0.90;;;;;;;;;;5103187;28;20225;-64
2022/11/23 09:28:27;;;;;;;1.07;0.70;;;;;;;;;;5097767;28;20199;-64
2022/11/23 09:30:54;;;;;;;4.00;0.80;;;;;;;;;;5100023;28;20921;-64
2022/11/23 09:33:22;;;;;;;1.23;0.80;;;;;;;;;;5098672;28;20233;-64
2022/11/23 09:35:56;;;;;;;4.03;1.00;;;;;;;;;;5094372;28;20198;-64
2022/11/23 09:38:24;;;;;;;2.23;0.80;;;;;;;;;;5096691;28;20209;-64
2022/11/23 09:40:57;;;;;;;0.50;0.50;;;;;;;;;;5091604;28;20194;-64
2022/11/23 09:43:38;;;;;;;1.83;0.80;;;;;;;;;;5103424;28;20554;-64
2022/11/23 09:46:12;;;;;;;0.93;0.63;;;;;;;;;;5099189;28;20234;-64
2022/11/23 09:48:46;;;;;;;1.67;0.77;;;;;;;;;;5102514;28;20217;-67
2022/11/23 09:51:15;;;;;;;0.70;0.53;;;;;;;;;;5108498;28;20206;-64
2022/11/23 09:53:46;;;;;;;1.23;0.60;;;;;;;;;;5089289;28;20206;-64
2022/11/23 09:56:17;;;;;;;2.00;0.60;;;;;;;;;;5109335;28;20292;-63
2022/11/23 09:58:44;;;;;;;1.40;0.47;;;;;;;;;;5108824;28;20245;-64
2022/11/23 10:01:12;;;;;;;1.50;0.50;;;;;;;;;;5097123;28;20679;-64
2022/11/23 10:03:41;;;;;;;1.93;0.70;;;;;;;;;;5093970;28;20783;-65
2022/11/23 10:06:12;;;;;;;0.40;0.40;;;;;;;;;;5098354;28;20225;-63
2022/11/23 10:08:44;;;;;;;1.30;0.80;;;;;;;;;;5106156;28;20906;-64
2022/11/23 10:11:21;;;;;;;0.67;0.67;;;;;;;;;;5090870;28;20279;-63
2022/11/23 10:13:52;;;;;;;0.30;0.30;;;;;;;;;;5093494;28;20206;-64
2022/11/23 10:16:26;;;;;;;1.57;0.67;;;;;;;;;;5109362;28;20205;-64
2022/11/23 10:18:58;;;;;;;0.43;0.43;;;;;;;;;;5110892;28;20247;-65
2022/11/23 10:21:30;;;;;;;0.93;0.70;;;;;;;;;;5105710;28;20205;-65
2022/11/23 10:24:01;;;;;;;1.98;0.82;;;;;;;;;;5096290;28;20202;-65
2022/11/23 10:26:32;;;;;;;0.50;0.50;;;;;;;;;;5110697;28;20240;-70
2022/11/23 10:29:03;;;;;;;3.28;0.77;;;;;;;;;;5108524;28;20198;-65
2022/11/23 10:31:31;;;;;;;1.02;0.38;;;;;;;;;;5100551;28;20706;-65
2022/11/23 10:34:01;;;;;;;0.55;0.55;;;;;;;;;;5092557;28;20216;-65
2022/11/23 10:36:28;;;;;;;1.58;0.70;;;;;;;;;;5110462;28;20201;-65
2022/11/23 10:38:57;;;;;;;0.75;0.50;;;;;;;;;;5097402;28;20198;-64
2022/11/23 10:41:24;;;;;;;0.45;0.45;;;;;;;;;;5088475;28;20641;-64
2022/11/23 10:43:56;;;;;;;0.90;0.68;;;;;;;;;;5090168;28;20210;-64
2022/11/23 10:46:28;;;;;;;0.55;0.55;;;;;;;;;;5103216;28;20229;-63
2022/11/23 10:48:56;;;;;;;0.68;0.57;;;;;;;;;;5108333;28;20205;-65
2022/11/23 10:51:27;;;;;;;1.60;0.50;;;;;;;;;;5094762;28;20206;-63
2022/11/23 10:53:55;;;;;;;0.55;0.52;;;;;;;;;;5089687;28;20217;-64
2022/11/23 10:56:22;;;;;;;1.92;0.75;;;;;;;;;;5101788;28;20194;-63
2022/11/23 10:58:49;;;;;;;2.92;0.90;;;;;;;;;;5099169;28;20639;-63
2022/11/23 11:01:21;;;;;;;0.50;0.50;;;;;;;;;;5100034;28;20664;-62
2022/11/23 11:03:49;;;;;;;0.93;0.73;;;;;;;;;;5093943;28;20202;-63
2022/11/23 11:06:22;;;;;;;0.52;0.40;;;;;;;;;;5106056;28;20262;-62
2022/11/23 11:08:54;;;;;;;1.13;0.43;;;;;;;;;;5097957;28;20205;-63
2022/11/23 11:11:26;;;;;;;0.93;0.80;;;;;;;;;;5089548;28;20698;-62
2022/11/23 11:14:01;;;;;;;0.40;0.40;;;;;;;;;;5089399;28;20207;-62
2022/11/23 11:16:31;;;;;;;2.83;0.50;;;;;;;;;;5089047;28;20210;-63
2022/11/23 11:18:58;;;;;;;4.43;0.40;;;;;;;;;;5088599;28;20752;-63
2022/11/23 11:21:30;;;;;;;1.48;0.50;;;;;;;;;;5089172;28;20214;-62
2022/11/23 11:23:59;;;;;;;1.13;0.30;;;;;;;;;;5088607;28;20199;-63
2022/11/23 11:26:27;;;;;;;1.17;0.27;;;;;;;;;;5092903;28;20224;-63
2022/11/23 11:28:55;;;;;;;0.77;0.40;;;;;;;;;;5105193;28;20570;-62
2022/11/23 11:31:36;;;;;;;1.37;0.40;;;;;;;;;;5089617;28;20679;-63
2022/11/23 11:34:06;;;;;;;3.40;0.50;;;;;;;;;;5089524;28;20213;-63
2022/11/23 11:36:36;;;;;;;2.50;0.83;;;;;;;;;;5088678;28;20202;-62
2022/11/23 11:39:07;;;;;;;1.43;0.30;;;;;;;;;;5097611;28;20206;-63
2022/11/23 11:41:34;;;;;;;0.27;0.27;;;;;;;;;;5109355;28;20299;-62
2022/11/23 11:44:04;;;;;;;3.93;0.57;;;;;;;;;;5105115;28;20233;-63
2022/11/23 11:46:34;;;;;;;2.67;0.47;;;;;;;;;;5089566;28;20324;-62
2022/11/23 11:49:06;;;;;;;0.97;0.50;;;;;;;;;;5103065;28;20213;-62
2022/11/23 11:51:35;;;;;;;1.33;0.33;;;;;;;;;;5108366;28;20323;-63
2022/11/23 11:54:05;;;;;;;2.97;0.40;;;;;;;;;;5106587;28;20209;-62
2022/11/23 11:56:36;;;;;;;0.73;0.40;;;;;;;;;;5108887;28;20216;-63
2022/11/23 11:59:08;;;;;;;1.97;0.70;;;;;;;;;;5101864;28;20233;-63
2022/11/23 12:01:38;;;;;;;0.50;0.47;;;;;;;;;;5088526;28;20621;-63
2022/11/23 12:04:07;;;;;;;2.10;0.57;;;;;;;;;;5093053;28;20216;-62
2022/11/23 12:06:37;;;;;;;0.43;0.30;;;;;;;;;;5108371;28;20743;-63
2022/11/23 12:09:07;;;;;;;0.87;0.50;;;;;;;;;;5102477;28;20194;-62
2022/11/23 12:11:35;;;;;;;0.50;0.30;;;;;;;;;;5091672;28;20208;-63
2022/11/23 12:14:03;;;;;;;2.70;0.80;;;;;;;;;;5097894;28;20716;-62
2022/11/23 12:16:34;;;;;;;2.43;0.50;;;;;;;;;;5103374;28;20276;-62
2022/11/23 12:19:14;;;;;;;0.87;0.40;;;;;;;;;;5096209;28;20327;-62
2022/11/23 12:21:57;;;;;;;0.60;0.60;;;;;;;;;;5087832;28;20209;-62
2022/11/23 12:24:27;;;;;;;1.43;0.70;;;;;;;;;;5095989;28;20206;-63
2022/11/23 12:26:57;;;;;;;2.47;0.60;;;;;;;;;;5086998;28;20790;-62
2022/11/23 12:29:42;;;;;;;3.40;0.73;;;;;;;;;;5090196;28;20216;-64
2022/11/23 12:32:13;;;;;;;0.50;0.50;;;;;;;;;;5086811;28;20218;-63
2022/11/23 12:34:48;;;;;;;1.33;0.50;;;;;;;;;;5088119;28;20202;-64
2022/11/23 12:37:25;;;;;;;1.97;0.60;;;;;;;;;;5099788;28;20635;-63
2022/11/23 12:40:12;;;;;;;3.47;1.13;;;;;;;;;;5106561;28;20201;-65
2022/11/23 12:42:42;;;;;;;5.37;2.23;;;;;;;;;;5100527;28;20214;-66
2022/11/23 12:45:22;;;;;;;0.60;0.60;;;;;;;;;;5108143;28;20213;-63
2022/11/23 12:47:54;;;;;;;0.50;0.40;;;;;;;;;;5108348;28;20209;-64
2022/11/23 12:50:25;;;;;;;3.20;0.73;;;;;;;;;;5094996;28;20226;-63
2022/11/23 12:52:57;;;;;;;2.73;0.70;;;;;;;;;;5111395;28;20228;-62
2022/11/23 12:55:25;;;;;;;1.20;1.17;;;;;;;;;;5111788;28;20441;-63
2022/11/23 12:57:55;;;;;;;3.80;0.90;;;;;;;;;;5111975;28;20244;-64
2022/11/23 13:00:23;;;;;;;0.80;0.80;;;;;;;;;;5093743;28;20695;-63
2022/11/23 13:03:00;;;;;;;3.10;0.50;;;;;;;;;;5094239;28;20210;-63
2022/11/23 13:05:40;;;;;;;2.20;0.90;;;;;;;;;;5109638;28;20260;-63
2022/11/23 13:08:26;;;;;;;2.90;1.00;;;;;;;;;;5111914;28;20209;-63
2022/11/23 13:10:58;;;;;;;0.33;0.30;;;;;;;;;;5091391;28;20210;-63
2022/11/23 13:13:34;;;;;;;1.73;0.50;;;;;;;;;;5091155;28;20585;-63
2022/11/23 13:16:15;;;;;;;1.70;0.70;;;;;;;;;;5092183;28;20202;-64
2022/11/23 13:18:56;;;;;;;0.83;0.60;;;;;;;;;;5101862;28;20209;-63
2022/11/23 13:21:29;;;;;;;1.40;0.60;;;;;;;;;;5091225;28;20570;-63
2022/11/23 13:23:57;;;;;;;2.20;0.77;;;;;;;;;;5094405;28;20312;-64
2022/11/23 13:26:24;;;;;;;0.30;0.30;;;;;;;;;;5099278;28;20331;-64
2022/11/23 13:28:52;;;;;;;1.03;0.40;;;;;;;;;;5093052;28;20222;-64
2022/11/23 13:31:27;;;;;;;0.67;0.33;;;;;;;;;;5096850;28;20195;-64
2022/11/23 13:33:55;;;;;;;3.00;0.40;;;;;;;;;;5097383;28;20209;-64
2022/11/23 13:36:41;;;;;;;1.53;0.60;;;;;;;;;;5090183;28;20206;-63
2022/11/23 13:39:28;;;;;;;0.50;0.50;;;;;;;;;;5100042;28;20722;-64
2022/11/23 13:42:00;;;;;;;3.30;0.40;;;;;;;;;;5100457;28;20218;-62
2022/11/23 13:44:28;;;;;;;1.27;0.60;;;;;;;;;;5091141;28;20680;-63
2022/11/23 13:47:16;;;;;;;0.63;0.20;;;;;;;;;;5102055;28;20281;-63
2022/11/23 13:49:45;;;;;;;0.13;0.13;;;;;;;;;;5085037;28;20214;-63
2022/11/23 13:52:27;;;;;;;0.90;0.40;;;;;;;;;;5091473;28;20238;-63
2022/11/23 13:54:59;;;;;;;2.20;0.40;;;;;;;;;;5108545;28;20228;-63
2022/11/23 13:57:26;;;;;;;0.83;0.57;;;;;;;;;;5109890;28;20209;-65
2022/11/23 13:59:53;;;;;;;1.43;0.50;;;;;;;;;;5109687;28;20213;-63
2022/11/23 14:02:26;;;;;;;1.80;0.50;;;;;;;;;;5099106;28;20228;-63
2022/11/23 14:04:53;;;;;;;1.20;0.53;;;;;;;;;;5108314;28;20278;-63
2022/11/23 14:07:24;;;;;;;0.27;0.27;;;;;;;;;;5108775;28;20726;-62
2022/11/23 14:09:53;;;;;;;0.50;0.50;;;;;;;;;;5110276;28;20700;-63
2022/11/23 14:12:24;;;;;;;0.30;0.30;;;;;;;;;;5098614;28;20207;-62
2022/11/23 14:14:56;;;;;;;1.63;0.57;;;;;;;;;;5103298;28;20224;-63
2022/11/23 14:17:44;;;;;;;1.70;0.30;;;;;;;;;;5110345;28;20236;-62
2022/11/23 14:20:18;;;;;;;4.33;0.77;;;;;;;;;;5104225;28;20221;-63
2022/11/23 14:22:53;;;;;;;0.73;0.40;;;;;;;;;;5098154;28;20202;-62
2022/11/23 14:25:33;;;;;;;1.93;0.37;;;;;;;;;;5106452;28;20201;-63
2022/11/23 14:28:05;;;;;;;4.70;0.80;;;;;;;;;;5109914;28;20224;-63
2022/11/23 14:30:39;;;;;;;0.30;0.30;;;;;;;;;;5110191;28;20217;-62
2022/11/23 14:33:14;;;;;;;1.93;0.40;;;;;;;;;;5097472;28;20209;-63
2022/11/23 14:35:45;;;;;;;0.83;0.73;;;;;;;;;;5109280;28;20653;-63
2022/11/23 14:38:30;;;;;;;0.90;0.50;;;;;;;;;;5110090;28;20205;-63
2022/11/23 14:41:03;;;;;;;7.10;0.70;;;;;;;;;;5095997;28;20211;-63
2022/11/23 14:43:30;;;;;;;2.03;0.57;;;;;;;;;;5107706;28;20217;-63
2022/11/23 14:46:01;;;;;;;2.00;0.50;;;;;;;;;;5088886;28;20223;-63
2022/11/23 14:48:29;;;;;;;0.73;0.50;;;;;;;;;;5089513;28;20244;-63
2022/11/23 14:50:57;;;;;;;0.30;0.30;;;;;;;;;;5089697;28;20213;-62
2022/11/23 14:53:26;;;;;;;0.63;0.63;;;;;;;;;;5093021;28;20202;-62
2022/11/23 14:55:54;;;;;;;4.40;0.43;;;;;;;;;;5089107;28;20237;-62